Time;durP1;ratioP1;P1;durP2;ratioP2;P2;SDS_P1;SDS_P2;PMS_P1;PMS_P2;Temp;Humidity;BMP_temperature;BMP_pressure;BME280_temperature;BME280_humidity;BME280_pressure;Samples;Min_cycle;Max_cycle;Signal;HPM_P1;HPM_P2
2023/01/08 00:01:44;;;;;;;10.90;8.40;;;5.50;69.30;;;;;;6053477;23;115117;-84
2023/01/08 00:04:16;;;;;;;12.23;8.77;;;5.50;69.50;;;;;;6054993;23;115099;-84
2023/01/08 00:06:44;;;;;;;14.30;9.98;;;5.50;69.50;;;;;;6075528;23;115185;-84
2023/01/08 00:09:11;;;;;;;13.70;9.35;;;5.50;69.50;;;;;;6028154;23;114621;-84
2023/01/08 00:11:39;;;;;;;16.45;10.27;;;5.60;69.40;;;;;;6053697;23;114212;-83
2023/01/08 00:14:07;;;;;;;14.30;9.40;;;5.50;69.40;;;;;;6029645;23;114689;-84
2023/01/08 00:16:34;;;;;;;11.90;8.52;;;5.50;69.40;;;;;;6076629;23;115349;-83
2023/01/08 00:19:01;;;;;;;12.98;9.27;;;5.60;69.30;;;;;;6052569;23;114511;-84
2023/01/08 00:21:29;;;;;;;13.10;8.80;;;5.50;69.40;;;;;;6077879;23;114263;-84
2023/01/08 00:23:56;;;;;;;12.82;8.93;;;5.50;69.50;;;;;;6077993;23;114220;-83
2023/01/08 00:26:24;;;;;;;14.30;9.50;;;5.50;69.50;;;;;;6051450;23;117806;-84
2023/01/08 00:28:51;;;;;;;13.93;9.48;;;5.60;69.60;;;;;;6053054;23;115111;-84
2023/01/08 00:31:19;;;;;;;12.63;9.20;;;5.50;69.50;;;;;;6076524;23;114559;-83
2023/01/08 00:33:46;;;;;;;13.30;9.00;;;5.50;69.40;;;;;;6055175;23;114869;-83
2023/01/08 00:36:18;;;;;;;14.57;8.93;;;5.50;69.40;;;;;;6052568;23;115191;-83
2023/01/08 00:38:45;;;;;;;12.57;9.52;;;5.50;69.50;;;;;;6060681;23;117138;-82
2023/01/08 00:41:13;;;;;;;13.50;9.07;;;5.50;69.50;;;;;;6096973;23;114012;-83
2023/01/08 00:43:41;;;;;;;11.90;8.50;;;5.40;69.50;;;;;;6053005;23;114417;-83
2023/01/08 00:46:09;;;;;;;15.15;9.40;;;5.30;69.60;;;;;;6053194;23;115031;-84
2023/01/08 00:48:37;;;;;;;11.65;8.35;;;5.30;69.70;;;;;;6052234;23;117381;-84
2023/01/08 00:51:06;;;;;;;11.73;8.50;;;5.30;69.80;;;;;;6052732;23;114633;-83
2023/01/08 00:53:48;;;;;;;11.85;8.70;;;5.20;69.80;;;;;;6052598;23;114651;-83
2023/01/08 00:56:15;;;;;;;11.57;8.25;;;5.30;70.00;;;;;;6050620;23;115355;-84
2023/01/08 00:58:45;;;;;;;11.88;8.00;;;5.20;70.10;;;;;;5990666;23;118627;-83
2023/01/08 01:01:13;;;;;;;13.75;8.80;;;5.20;70.20;;;;;;5993605;23;114348;-83
2023/01/08 01:03:41;;;;;;;12.43;8.32;;;5.20;70.20;;;;;;5923760;23;114580;-83
2023/01/08 01:06:10;;;;;;;11.80;8.50;;;5.20;70.30;;;;;;5992739;23;115505;-83
2023/01/08 01:08:37;;;;;;;13.38;9.50;;;5.20;70.50;;;;;;5945648;23;116024;-83
2023/01/08 01:11:16;;;;;;;11.30;6.20;;;5.30;70.40;;;;;;5969702;23;115003;-83
2023/01/08 01:13:43;;;;;;;12.38;8.43;;;5.40;70.40;;;;;;5947136;23;114387;-83
2023/01/08 01:16:10;;;;;;;12.10;8.95;;;5.30;70.40;;;;;;5993371;23;115185;-83
2023/01/08 01:18:38;;;;;;;10.27;7.75;;;5.30;70.40;;;;;;5922389;23;117067;-84
2023/01/08 01:21:25;;;;;;;11.00;6.47;;;5.30;70.40;;;;;;5993462;23;114154;-83
2023/01/08 01:23:54;;;;;;;12.07;8.02;;;5.40;70.40;;;;;;5946831;23;114852;-83
2023/01/08 01:26:21;;;;;;;13.25;8.98;;;5.30;70.50;;;;;;5992979;23;115067;-83
2023/01/08 01:28:50;;;;;;;11.57;8.35;;;5.30;70.50;;;;;;5998636;23;115428;-82
2023/01/08 01:31:18;;;;;;;12.77;8.55;;;5.30;70.50;;;;;;6053405;23;114321;-83
2023/01/08 01:33:45;;;;;;;12.95;9.00;;;5.30;70.50;;;;;;6052929;23;114672;-84
2023/01/08 01:36:13;;;;;;;12.85;8.38;;;5.30;70.60;;;;;;6051959;23;115260;-83
2023/01/08 01:38:44;;;;;;;11.07;8.30;;;5.30;70.60;;;;;;6052106;23;116037;-84
2023/01/08 01:41:30;;;;;;;12.43;8.25;;;5.30;70.70;;;;;;6052961;23;115060;-83
2023/01/08 01:44:40;;;;;;;12.93;8.45;;;5.30;70.80;;;;;;6053425;23;114506;-83
2023/01/08 01:47:24;;;;;;;13.10;8.68;;;5.30;70.70;;;;;;6051681;23;115392;-84
2023/01/08 01:50:06;;;;;;;12.70;8.55;;;5.20;71.00;;;;;;6054807;23;114513;-84
2023/01/08 01:52:39;;;;;;;11.88;8.48;;;5.20;71.00;;;;;;6077771;23;114385;-83
2023/01/08 01:55:06;;;;;;;12.25;8.43;;;5.20;71.00;;;;;;6053130;23;114482;-83
2023/01/08 01:57:33;;;;;;;11.13;8.63;;;5.20;71.00;;;;;;6027407;23;117927;-83
2023/01/08 02:00:03;;;;;;;12.27;8.27;;;5.20;70.90;;;;;;6051572;23;115601;-83
2023/01/08 02:02:38;;;;;;;12.63;9.15;;;5.20;70.90;;;;;;6030949;23;114947;-83
2023/01/08 02:05:05;;;;;;;13.95;8.80;;;5.20;71.00;;;;;;6029006;23;114542;-83
2023/01/08 02:07:55;;;;;;;13.13;9.30;;;5.30;70.90;;;;;;6051434;23;118295;-83
2023/01/08 02:11:12;;;;;;;12.75;8.65;;;5.40;70.80;;;;;;6053037;23;115418;-83
2023/01/08 02:13:45;;;;;;;13.40;9.48;;;5.40;70.80;;;;;;6036020;23;114393;-83
2023/01/08 02:16:20;;;;;;;12.02;8.18;;;5.40;70.80;;;;;;6029956;23;114574;-84
2023/01/08 02:18:56;;;;;;;14.40;8.77;;;5.30;70.80;;;;;;6051586;23;115033;-83
2023/01/08 02:21:55;;;;;;;11.73;8.60;;;5.30;70.80;;;;;;6027891;23;114344;-83
2023/01/08 02:24:38;;;;;;;13.32;8.40;;;5.40;70.80;;;;;;6077193;23;114410;-84
2023/01/08 02:27:06;;;;;;;12.63;8.47;;;5.30;70.90;;;;;;6042781;23;114695;-84
2023/01/08 02:29:33;;;;;;;12.63;8.93;;;5.30;70.90;;;;;;6044462;23;114144;-83
2023/01/08 02:32:00;;;;;;;13.52;9.30;;;5.30;70.80;;;;;;6028245;23;114608;-83
2023/01/08 02:34:30;;;;;;;12.57;8.65;;;5.30;70.80;;;;;;6076965;23;114378;-83
2023/01/08 02:36:58;;;;;;;12.48;8.40;;;5.40;70.90;;;;;;6054376;23;114234;-83
2023/01/08 02:39:46;;;;;;;12.65;8.90;;;5.40;70.80;;;;;;6026794;23;118057;-83
2023/01/08 02:42:34;;;;;;;12.68;8.88;;;5.40;70.80;;;;;;6052989;23;115384;-83
2023/01/08 02:45:04;;;;;;;12.70;8.52;;;5.50;70.80;;;;;;6051926;23;114333;-83
2023/01/08 02:48:12;;;;;;;11.95;8.80;;;5.60;70.60;;;;;;6054153;23;114213;-83
2023/01/08 02:51:05;;;;;;;12.98;8.27;;;5.60;70.50;;;;;;6076117;23;115489;-84
2023/01/08 02:53:36;;;;;;;14.73;9.30;;;5.60;70.40;;;;;;6044263;23;115612;-83
2023/01/08 02:56:07;;;;;;;12.70;9.27;;;5.60;70.50;;;;;;6053355;23;114955;-83
2023/01/08 02:58:34;;;;;;;13.18;9.07;;;5.60;70.50;;;;;;6053099;23;114639;-83
2023/01/08 03:01:03;;;;;;;12.13;8.30;;;5.60;70.30;;;;;;6027517;23;115140;-83
2023/01/08 03:03:30;;;;;;;12.73;9.23;;;5.60;70.40;;;;;;6003324;23;114759;-83
2023/01/08 03:06:06;;;;;;;12.40;8.77;;;5.60;70.30;;;;;;6076278;23;114631;-82
2023/01/08 03:08:37;;;;;;;12.23;8.18;;;5.60;70.30;;;;;;6076378;23;114646;-83
2023/01/08 03:11:16;;;;;;;15.30;9.82;;;5.60;70.40;;;;;;6027712;23;115175;-83
2023/01/08 03:14:04;;;;;;;15.25;10.05;;;5.60;70.30;;;;;;6027877;23;115433;-83
2023/01/08 03:16:40;;;;;;;13.63;9.40;;;5.60;70.20;;;;;;6004790;23;114993;-82
2023/01/08 03:19:24;;;;;;;14.55;9.93;;;5.60;70.20;;;;;;6029200;23;114295;-84
2023/01/08 03:21:51;;;;;;;13.60;8.88;;;5.60;70.20;;;;;;6030476;23;115596;-82
2023/01/08 03:24:25;;;;;;;12.93;9.13;;;5.60;70.20;;;;;;6028845;23;114678;-82
2023/01/08 03:26:56;;;;;;;13.30;9.23;;;5.60;70.20;;;;;;6053516;23;114305;-83
2023/01/08 03:29:23;;;;;;;15.48;9.43;;;5.60;70.30;;;;;;6029518;23;114631;-83
2023/01/08 03:31:58;;;;;;;17.60;12.15;;;5.60;70.30;;;;;;6027995;23;114935;-83
2023/01/08 03:34:30;;;;;;;21.23;13.82;;;5.70;70.00;;;;;;6005298;23;115321;-84
2023/01/08 03:36:59;;;;;;;25.45;14.88;;;5.60;69.70;;;;;;6055729;23;114535;-83
2023/01/08 03:39:33;;;;;;;22.10;14.30;;;5.60;69.20;;;;;;6030984;23;114534;-82
2023/01/08 03:42:03;;;;;;;20.83;14.25;;;5.50;69.00;;;;;;6028905;23;114968;-83
2023/01/08 03:44:31;;;;;;;21.80;14.13;;;5.40;69.00;;;;;;6029466;23;114699;-82
2023/01/08 03:46:58;;;;;;;21.58;14.15;;;5.30;69.10;;;;;;6005724;23;114286;-82
2023/01/08 03:49:26;;;;;;;21.90;14.80;;;5.20;69.10;;;;;;6055090;23;115456;-83
2023/01/08 03:51:53;;;;;;;25.30;15.80;;;5.20;69.20;;;;;;6028677;23;115553;-82
2023/01/08 03:54:23;;;;;;;23.98;15.85;;;5.10;69.20;;;;;;6004842;23;114582;-83
2023/01/08 03:56:51;;;;;;;19.02;13.57;;;5.10;69.20;;;;;;6029356;23;114304;-83
2023/01/08 03:59:19;;;;;;;24.05;14.73;;;5.10;69.30;;;;;;6055121;23;114212;-83
2023/01/08 04:01:47;;;;;;;22.23;15.50;;;4.90;69.50;;;;;;6054172;23;114965;-83
2023/01/08 04:04:20;;;;;;;24.10;13.32;;;4.90;69.50;;;;;;6053873;23;114796;-82
2023/01/08 04:06:47;;;;;;;21.77;14.55;;;4.90;69.60;;;;;;6053551;23;114704;-82
2023/01/08 04:09:14;;;;;;;21.83;14.13;;;4.90;69.60;;;;;;6055061;23;114734;-83
2023/01/08 04:11:46;;;;;;;24.48;14.82;;;4.90;69.50;;;;;;6054027;23;115180;-83
2023/01/08 04:14:13;;;;;;;23.55;14.10;;;4.90;69.40;;;;;;6060852;23;114864;-82
2023/01/08 04:16:41;;;;;;;22.90;15.07;;;4.80;69.40;;;;;;6037151;23;114366;-83
2023/01/08 04:19:12;;;;;;;20.98;14.93;;;4.80;69.50;;;;;;6054412;23;114220;-83
2023/01/08 04:21:40;;;;;;;21.67;14.55;;;4.70;69.50;;;;;;6028475;23;115334;-83
2023/01/08 04:24:07;;;;;;;21.70;13.98;;;4.70;69.50;;;;;;5981449;23;117541;-84
2023/01/08 04:26:34;;;;;;;21.33;14.13;;;4.70;69.60;;;;;;6005536;23;114438;-82
2023/01/08 04:29:02;;;;;;;22.85;14.93;;;4.60;69.80;;;;;;6054752;23;115683;-82
2023/01/08 04:31:30;;;;;;;23.23;14.32;;;4.70;69.50;;;;;;6028325;23;115002;-83
2023/01/08 04:33:57;;;;;;;21.88;14.25;;;4.60;69.40;;;;;;6028343;23;115707;-83
2023/01/08 04:36:25;;;;;;;21.40;14.05;;;4.60;69.40;;;;;;6054685;23;114317;-83
2023/01/08 04:38:52;;;;;;;20.55;14.50;;;4.60;69.40;;;;;;6053751;23;114283;-82
2023/01/08 04:41:19;;;;;;;22.23;13.98;;;4.50;69.40;;;;;;5980729;23;118599;-82
2023/01/08 04:43:46;;;;;;;18.50;12.63;;;4.50;69.40;;;;;;6053620;23;114794;-82
2023/01/08 04:46:14;;;;;;;20.15;13.55;;;4.50;69.50;;;;;;6053696;23;114307;-82
2023/01/08 04:48:41;;;;;;;18.15;12.30;;;4.50;69.70;;;;;;6054145;23;115028;-82
2023/01/08 04:51:11;;;;;;;26.52;17.40;;;4.50;69.40;;;;;;6052138;23;115174;-82
2023/01/08 04:53:40;;;;;;;29.77;21.77;;;4.40;69.30;;;;;;6051893;23;115266;-82
2023/01/08 04:56:09;;;;;;;26.40;18.48;;;4.30;69.00;;;;;;6029395;23;114259;-82
2023/01/08 04:58:36;;;;;;;22.73;17.60;;;4.20;68.90;;;;;;6005967;23;114597;-82
2023/01/08 05:01:12;;;;;;;23.63;17.05;;;4.20;68.90;;;;;;6004154;23;115095;-83
2023/01/08 05:03:39;;;;;;;22.80;15.98;;;4.10;69.00;;;;;;6029127;23;114911;-83
2023/01/08 05:06:07;;;;;;;26.27;17.63;;;4.10;69.30;;;;;;6030025;23;114377;-82
2023/01/08 05:08:34;;;;;;;25.05;17.75;;;4.00;69.20;;;;;;6054727;23;114192;-82
2023/01/08 05:11:02;;;;;;;29.30;19.23;;;4.00;69.10;;;;;;6051517;23;115065;-82
2023/01/08 05:13:29;;;;;;;30.38;18.85;;;3.90;69.40;;;;;;6052526;23;116819;-83
2023/01/08 05:16:00;;;;;;;28.73;18.48;;;3.90;69.30;;;;;;6053400;23;114184;-83
2023/01/08 05:18:28;;;;;;;27.70;19.38;;;3.90;69.30;;;;;;6029740;23;114412;-83
2023/01/08 05:21:03;;;;;;;27.88;17.58;;;3.90;69.30;;;;;;6052619;23;115131;-83
2023/01/08 05:23:31;;;;;;;27.73;18.50;;;3.80;69.50;;;;;;6052324;23;114656;-82
2023/01/08 05:25:59;;;;;;;24.17;16.52;;;3.80;69.70;;;;;;6053372;23;114686;-83
2023/01/08 05:28:27;;;;;;;26.20;17.02;;;3.90;69.70;;;;;;6053161;23;114295;-83
2023/01/08 05:30:54;;;;;;;22.98;16.50;;;3.80;69.90;;;;;;6052075;23;115588;-84
2023/01/08 05:33:21;;;;;;;24.88;16.77;;;3.80;70.00;;;;;;6052078;23;114642;-83
2023/01/08 05:35:51;;;;;;;25.75;17.05;;;3.80;70.00;;;;;;6028965;23;114647;-83
2023/01/08 05:38:18;;;;;;;26.55;17.67;;;3.80;69.90;;;;;;6052611;23;115325;-84
2023/01/08 05:40:45;;;;;;;30.13;19.30;;;3.80;69.70;;;;;;6026664;23;117204;-84
2023/01/08 05:43:13;;;;;;;26.88;17.08;;;3.80;69.40;;;;;;6052797;23;114801;-84
2023/01/08 05:45:40;;;;;;;26.23;17.38;;;3.80;69.70;;;;;;6053018;23;114545;-83
2023/01/08 05:48:07;;;;;;;29.17;17.10;;;3.80;69.70;;;;;;6054348;23;114388;-83
2023/01/08 05:50:34;;;;;;;29.27;17.58;;;3.80;69.50;;;;;;6053189;23;115043;-83
2023/01/08 05:53:06;;;;;;;31.08;16.90;;;3.70;69.40;;;;;;6051838;23;116541;-82
2023/01/08 05:55:34;;;;;;;30.05;18.25;;;3.70;69.20;;;;;;6054572;23;114685;-82
2023/01/08 05:58:05;;;;;;;30.60;17.13;;;3.60;69.20;;;;;;6052669;23;114621;-83
2023/01/08 06:00:32;;;;;;;29.17;16.83;;;3.60;69.20;;;;;;6057876;23;116301;-83
2023/01/08 06:03:08;;;;;;;26.67;16.67;;;3.60;69.40;;;;;;6035370;23;114235;-84
2023/01/08 06:05:35;;;;;;;29.35;18.10;;;3.60;69.50;;;;;;6030445;23;115687;-82
2023/01/08 06:08:03;;;;;;;29.83;17.02;;;3.50;69.40;;;;;;6052870;23;114500;-83
2023/01/08 06:10:30;;;;;;;26.30;17.73;;;3.50;69.40;;;;;;6053518;23;114217;-83
2023/01/08 06:12:57;;;;;;;29.42;18.40;;;3.40;69.70;;;;;;6053267;23;114626;-82
2023/01/08 06:15:26;;;;;;;34.33;21.50;;;3.40;69.80;;;;;;6052803;23;114255;-83
2023/01/08 06:17:53;;;;;;;34.42;20.33;;;3.40;69.80;;;;;;6054573;23;114368;-82
2023/01/08 06:20:23;;;;;;;40.88;22.27;;;3.40;69.80;;;;;;6051772;23;115035;-82
2023/01/08 06:22:53;;;;;;;33.95;20.80;;;3.40;69.80;;;;;;6052019;23;115285;-82
2023/01/08 06:25:20;;;;;;;30.00;19.25;;;3.40;69.70;;;;;;6052608;23;114677;-82
2023/01/08 06:27:51;;;;;;;35.72;22.83;;;3.40;69.80;;;;;;6052415;23;114606;-82
2023/01/08 06:30:18;;;;;;;40.55;24.25;;;3.40;69.70;;;;;;6052738;23;115021;-83
2023/01/08 06:32:46;;;;;;;41.22;24.95;;;3.40;69.60;;;;;;6053001;23;114635;-82
2023/01/08 06:35:13;;;;;;;46.40;26.90;;;3.40;69.60;;;;;;6052373;23;114633;-82
2023/01/08 06:37:43;;;;;;;54.80;30.13;;;3.30;69.80;;;;;;6028265;23;114380;-83
2023/01/08 06:40:11;;;;;;;49.95;26.80;;;3.30;69.60;;;;;;6053000;23;115715;-83
2023/01/08 06:42:38;;;;;;;52.38;27.13;;;3.30;69.60;;;;;;6050900;23;114711;-84
2023/01/08 06:45:06;;;;;;;45.40;26.40;;;3.20;69.70;;;;;;6053753;23;114540;-82
2023/01/08 06:47:34;;;;;;;44.13;25.48;;;3.20;69.80;;;;;;6052603;23;114283;-84
2023/01/08 06:50:01;;;;;;;52.42;29.02;;;3.20;70.10;;;;;;6003041;23;115289;-81
2023/01/08 06:52:28;;;;;;;55.95;30.67;;;3.30;69.80;;;;;;6051853;23;114969;-84
2023/01/08 06:54:55;;;;;;;57.03;30.30;;;3.20;69.60;;;;;;6027769;23;114288;-83
2023/01/08 06:57:24;;;;;;;52.03;27.75;;;3.20;69.60;;;;;;6054013;23;114729;-84
2023/01/08 06:59:51;;;;;;;55.35;30.27;;;3.20;69.80;;;;;;6052646;23;115040;-83
2023/01/08 07:02:18;;;;;;;54.92;30.92;;;3.20;69.60;;;;;;6026985;23;114652;-83
2023/01/08 07:04:46;;;;;;;53.53;31.20;;;3.20;69.80;;;;;;6053757;23;114437;-83
2023/01/08 07:07:14;;;;;;;56.40;32.63;;;3.20;69.70;;;;;;6052519;23;114966;-83
2023/01/08 07:09:41;;;;;;;57.10;32.97;;;3.20;69.80;;;;;;6052677;23;115425;-82
2023/01/08 07:12:15;;;;;;;54.60;31.13;;;3.20;69.60;;;;;;6046941;23;115185;-83
2023/01/08 07:14:44;;;;;;;51.30;30.52;;;3.30;69.50;;;;;;6025823;23;114403;-83
2023/01/08 07:17:11;;;;;;;55.83;31.13;;;3.30;69.50;;;;;;6051195;23;114576;-84
2023/01/08 07:19:39;;;;;;;48.63;30.35;;;3.30;69.50;;;;;;6049829;23;116385;-84
2023/01/08 07:22:06;;;;;;;44.95;28.02;;;3.30;69.70;;;;;;6050984;23;114805;-83
2023/01/08 07:24:33;;;;;;;41.75;26.60;;;3.40;69.60;;;;;;6052051;23;115274;-84
2023/01/08 07:27:00;;;;;;;44.65;27.85;;;3.50;69.60;;;;;;6027218;23;114442;-84
2023/01/08 07:29:29;;;;;;;47.08;28.52;;;3.60;69.50;;;;;;6026936;23;115021;-84
2023/01/08 07:31:56;;;;;;;43.58;27.98;;;3.60;69.50;;;;;;6051850;23;114728;-84
2023/01/08 07:34:23;;;;;;;38.85;25.05;;;3.70;69.40;;;;;;6076322;23;114384;-84
2023/01/08 07:36:50;;;;;;;42.55;26.20;;;3.90;69.30;;;;;;6003714;23;114495;-84
2023/01/08 07:39:18;;;;;;;40.78;24.85;;;3.90;69.40;;;;;;6002612;23;115106;-84
2023/01/08 07:41:45;;;;;;;46.10;29.42;;;4.00;69.20;;;;;;6050995;23;115837;-84
2023/01/08 07:44:12;;;;;;;54.00;31.48;;;4.10;69.20;;;;;;6052319;23;114513;-82
2023/01/08 07:46:48;;;;;;;54.92;32.30;;;4.20;69.00;;;;;;6056265;23;115668;-83
2023/01/08 07:49:15;;;;;;;52.55;30.27;;;4.40;68.90;;;;;;6016456;23;114466;-83
2023/01/08 07:51:43;;;;;;;44.50;27.80;;;4.50;69.00;;;;;;6061112;23;114788;-83
2023/01/08 07:54:10;;;;;;;52.72;30.48;;;4.70;68.90;;;;;;6054116;23;114421;-84
2023/01/08 07:56:37;;;;;;;45.97;28.42;;;4.70;68.50;;;;;;6053308;23;114538;-83
2023/01/08 07:59:04;;;;;;;44.67;27.58;;;4.90;68.30;;;;;;6053340;23;114976;-84
2023/01/08 08:01:32;;;;;;;40.83;27.05;;;5.00;68.10;;;;;;6050252;23;114716;-83
2023/01/08 08:03:59;;;;;;;44.63;26.48;;;5.10;68.10;;;;;;6050775;23;114543;-83
2023/01/08 08:06:27;;;;;;;40.92;26.27;;;5.20;69.40;;;;;;6029336;23;114570;-84
2023/01/08 08:08:56;;;;;;;43.53;26.90;;;5.20;68.70;;;;;;6051230;23;114988;-83
2023/01/08 08:11:24;;;;;;;42.30;27.33;;;5.20;68.80;;;;;;6004600;23;114500;-82
2023/01/08 08:13:51;;;;;;;40.15;26.67;;;5.20;68.50;;;;;;6055076;23;114538;-83
2023/01/08 08:16:22;;;;;;;40.97;27.60;;;5.20;68.80;;;;;;6030322;23;114678;-82
2023/01/08 08:18:51;;;;;;;39.17;25.77;;;5.20;68.80;;;;;;6053246;23;117154;-83
2023/01/08 08:21:19;;;;;;;43.95;28.42;;;5.20;68.70;;;;;;6050589;23;115197;-83
2023/01/08 08:23:46;;;;;;;42.10;29.05;;;5.20;68.60;;;;;;6053340;23;115235;-82
2023/01/08 08:26:13;;;;;;;46.33;30.27;;;5.20;68.60;;;;;;6077075;23;114264;-83
2023/01/08 08:28:40;;;;;;;53.00;33.17;;;5.20;68.70;;;;;;6075961;23;115057;-84
2023/01/08 08:31:08;;;;;;;48.95;32.13;;;5.20;68.20;;;;;;6075860;23;114518;-85
2023/01/08 08:33:35;;;;;;;51.55;32.03;;;5.20;68.30;;;;;;6005189;23;114430;-83
2023/01/08 08:36:03;;;;;;;51.42;32.05;;;5.20;68.30;;;;;;6054750;23;114626;-84
2023/01/08 08:38:30;;;;;;;51.80;33.70;;;5.20;68.10;;;;;;6052490;23;116493;-84
2023/01/08 08:40:57;;;;;;;48.95;32.13;;;5.30;68.00;;;;;;6051571;23;114763;-84
2023/01/08 08:43:24;;;;;;;51.47;33.15;;;5.20;67.90;;;;;;6053850;23;114360;-84
2023/01/08 08:45:55;;;;;;;51.75;35.28;;;5.20;68.20;;;;;;6028963;23;114478;-83
2023/01/08 08:48:23;;;;;;;56.95;35.53;;;5.20;68.20;;;;;;6051171;23;118439;-84
2023/01/08 08:50:50;;;;;;;56.20;35.25;;;5.20;67.80;;;;;;6051510;23;115876;-82
2023/01/08 08:53:18;;;;;;;62.33;39.50;;;5.20;68.00;;;;;;6028347;23;114179;-83
2023/01/08 08:55:45;;;;;;;67.97;39.78;;;5.20;67.70;;;;;;6028608;23;114363;-83
2023/01/08 08:58:12;;;;;;;73.35;43.88;;;5.20;67.60;;;;;;6052131;23;115006;-84
2023/01/08 09:00:41;;;;;;;78.88;46.70;;;5.10;67.80;;;;;;6027047;23;114611;-84
2023/01/08 09:03:13;;;;;;;79.10;48.22;;;5.00;67.90;;;;;;6028763;23;114752;-85
2023/01/08 09:05:41;;;;;;;81.57;48.97;;;5.00;67.90;;;;;;6029116;23;114424;-84
2023/01/08 09:08:09;;;;;;;85.13;51.70;;;4.90;68.20;;;;;;6052028;23;114976;-84
2023/01/08 09:10:38;;;;;;;86.80;51.22;;;4.90;68.20;;;;;;6052012;23;115129;-84
2023/01/08 09:13:06;;;;;;;95.55;54.97;;;4.90;68.20;;;;;;6053290;23;114269;-83
2023/01/08 09:15:33;;;;;;;100.75;58.72;;;4.90;68.10;;;;;;6053291;23;114344;-84
2023/01/08 09:18:00;;;;;;;98.97;60.80;;;4.90;68.10;;;;;;6051152;23;115652;-84
2023/01/08 09:20:27;;;;;;;100.63;59.55;;;4.90;68.20;;;;;;6029060;23;114533;-83
2023/01/08 09:22:59;;;;;;;105.22;62.90;;;4.90;68.30;;;;;;6054754;23;114527;-83
2023/01/08 09:25:28;;;;;;;107.88;68.85;;;4.90;68.30;;;;;;6030340;23;114374;-83
2023/01/08 09:28:00;;;;;;;103.22;61.60;;;4.90;68.30;;;;;;6052096;23;114952;-85
2023/01/08 09:30:47;;;;;;;98.97;59.17;;;5.00;68.50;;;;;;6050737;23;115429;-83
2023/01/08 09:33:15;;;;;;;90.10;56.75;;;5.20;68.70;;;;;;6053607;23;114809;-84
2023/01/08 09:35:43;;;;;;;98.57;58.88;;;5.20;68.70;;;;;;6063829;23;114204;-83
2023/01/08 09:38:10;;;;;;;93.78;56.05;;;5.20;68.70;;;;;;6043407;23;115258;-84
2023/01/08 09:40:43;;;;;;;83.13;52.67;;;5.40;68.70;;;;;;6052769;23;114602;-85
2023/01/08 09:43:18;;;;;;;89.70;55.88;;;5.50;68.60;;;;;;6004997;23;114404;-83
2023/01/08 09:45:51;;;;;;;93.30;56.15;;;5.60;68.40;;;;;;6030293;23;114376;-83
2023/01/08 09:48:39;;;;;;;81.57;50.67;;;5.70;68.40;;;;;;5989371;23;115085;-84
2023/01/08 09:51:16;;;;;;;84.38;54.95;;;5.90;68.30;;;;;;6050968;23;115001;-84
2023/01/08 09:53:44;;;;;;;;;;;6.00;68.10;;;;;;6051543;23;114667;-83
2023/01/08 09:56:20;;;;;;;80.38;50.63;;;6.00;68.20;;;;;;6051475;23;114226;-84
2023/01/08 09:58:58;;;;;;;73.88;46.17;;;6.00;68.10;;;;;;6026442;23;115235;-84
2023/01/08 10:01:36;;;;;;;78.43;50.78;;;6.10;68.10;;;;;;6050263;23;114826;-84
2023/01/08 10:04:15;;;;;;;82.55;50.42;;;6.10;68.00;;;;;;6028573;23;114354;-83
2023/01/08 10:06:57;;;;;;;80.25;50.83;;;6.20;68.00;;;;;;6051087;23;114301;-86
2023/01/08 10:09:31;;;;;;;83.13;50.88;;;6.20;67.90;;;;;;6002699;23;115038;-84
2023/01/08 10:12:03;;;;;;;85.95;52.00;;;6.30;68.00;;;;;;6025013;23;115159;-84
2023/01/08 10:14:41;;;;;;;80.22;49.47;;;6.30;68.00;;;;;;6027192;23;114455;-83
2023/01/08 10:17:29;;;;;;;74.47;46.97;;;6.40;67.90;;;;;;6005743;23;115739;-83
2023/01/08 10:20:11;;;;;;;77.32;45.67;;;6.40;67.80;;;;;;6050535;23;115064;-84
2023/01/08 10:22:42;;;;;;;71.25;43.30;;;6.40;67.70;;;;;;6004442;23;118354;-84
2023/01/08 10:25:24;;;;;;;71.60;46.60;;;6.50;67.60;;;;;;6074931;23;114554;-83
2023/01/08 10:28:00;;;;;;;75.68;46.22;;;6.50;67.70;;;;;;5947038;23;1342583;-84
2023/01/08 10:30:36;;;;;;;90.32;54.45;;;6.50;67.90;;;;;;6052510;23;115122;-84
2023/01/08 10:33:23;;;;;;;85.00;51.72;;;6.50;67.70;;;;;;6074980;23;115002;-84
2023/01/08 10:35:59;;;;;;;81.82;50.22;;;6.60;67.60;;;;;;6051575;23;114462;-84
2023/01/08 10:38:35;;;;;;;73.40;46.53;;;6.60;67.70;;;;;;6051789;23;114715;-83
2023/01/08 10:41:04;;;;;;;78.20;48.38;;;6.70;67.80;;;;;;6052369;23;115037;-85
2023/01/08 10:43:48;;;;;;;66.65;44.75;;;6.70;67.80;;;;;;6002954;23;118746;-84
2023/01/08 10:46:27;;;;;;;66.78;44.03;;;6.70;67.90;;;;;;6052303;23;114932;-85
2023/01/08 10:48:57;;;;;;;61.92;38.15;;;6.90;67.60;;;;;;6029005;23;114634;-82
2023/01/08 10:51:30;;;;;;;58.00;38.65;;;6.90;67.50;;;;;;6050756;23;116131;-83
2023/01/08 10:54:14;;;;;;;52.50;35.15;;;7.00;67.40;;;;;;6028577;23;116856;-83
2023/01/08 10:56:46;;;;;;;25.70;17.60;;;7.20;67.30;;;;;;6031294;23;114734;-85
2023/01/08 10:59:23;;;;;;;21.85;12.10;;;7.20;66.80;;;;;;5985382;23;114694;-85
2023/01/08 11:02:28;;;;;;;13.00;8.82;;;7.40;66.40;;;;;;6008805;23;115883;-84
2023/01/08 11:05:00;;;;;;;15.77;9.40;;;7.60;65.50;;;;;;6055261;23;114775;-84
2023/01/08 11:07:38;;;;;;;13.02;8.45;;;7.70;65.40;;;;;;5985417;23;114396;-85
2023/01/08 11:10:20;;;;;;;12.27;8.68;;;7.80;65.20;;;;;;6027408;23;115114;-82
2023/01/08 11:12:48;;;;;;;11.70;8.40;;;7.90;64.90;;;;;;6026519;23;116345;-84
2023/01/08 11:15:32;;;;;;;13.13;8.90;;;8.10;63.70;;;;;;6025151;23;115179;-86
2023/01/08 11:18:22;;;;;;;12.82;8.48;;;8.20;63.20;;;;;;6051376;23;114257;-83
2023/01/08 11:20:52;;;;;;;14.90;9.63;;;8.20;63.10;;;;;;6052534;23;114446;-85
2023/01/08 11:23:25;;;;;;;13.52;9.43;;;8.20;62.80;;;;;;6050336;23;117749;-84
2023/01/08 11:26:18;;;;;;;13.27;9.27;;;8.20;62.30;;;;;;6050908;23;114674;-84
2023/01/08 11:29:05;;;;;;;13.80;9.15;;;8.20;62.40;;;;;;5993825;23;114523;-85
2023/01/08 11:32:17;;;;;;;13.20;9.02;;;8.20;62.50;;;;;;5993759;23;115090;-84
2023/01/08 11:35:03;;;;;;;13.80;9.57;;;8.20;62.80;;;;;;6004168;23;114291;-83
2023/01/08 11:37:35;;;;;;;16.38;9.32;;;8.30;63.00;;;;;;5975398;23;114694;-85
2023/01/08 11:40:17;;;;;;;13.35;8.77;;;8.40;62.00;;;;;;5971434;23;114724;-84
2023/01/08 11:43:30;;;;;;;13.82;8.88;;;8.40;61.90;;;;;;5974193;23;114274;-84
2023/01/08 11:46:15;;;;;;;13.45;8.98;;;8.40;62.20;;;;;;5956535;23;117671;-84
2023/01/08 11:49:04;;;;;;;11.98;8.10;;;8.40;61.80;;;;;;6018338;23;114830;-85
2023/01/08 11:52:10;;;;;;;13.60;8.73;;;8.30;61.70;;;;;;5994027;23;114613;-84
2023/01/08 11:54:56;;;;;;;13.80;9.73;;;8.20;62.10;;;;;;6002366;23;114431;-84
2023/01/08 11:57:42;;;;;;;14.23;9.10;;;8.20;62.10;;;;;;5992857;23;115043;-84
2023/01/08 12:00:35;;;;;;;15.73;9.40;;;8.30;62.30;;;;;;5996673;23;115898;-84
2023/01/08 12:03:21;;;;;;;14.25;9.13;;;8.30;62.10;;;;;;5973205;23;114678;-84
2023/01/08 12:06:04;;;;;;;15.13;9.02;;;8.30;62.20;;;;;;5975593;23;115693;-85
2023/01/08 12:09:01;;;;;;;13.55;8.93;;;8.40;62.00;;;;;;5949428;23;119419;-85
2023/01/08 12:12:04;;;;;;;12.75;8.43;;;8.50;61.90;;;;;;5995558;23;114598;-84
2023/01/08 12:15:20;;;;;;;13.65;8.75;;;8.50;61.30;;;;;;5996795;23;115211;-86
2023/01/08 12:18:18;;;;;;;13.18;8.40;;;8.50;61.10;;;;;;6018803;23;114801;-83
2023/01/08 12:21:09;;;;;;;13.95;9.32;;;8.50;61.30;;;;;;5995471;23;116841;-83
2023/01/08 12:24:00;;;;;;;12.75;8.48;;;8.50;61.00;;;;;;5993875;23;115233;-84
2023/01/08 12:26:37;;;;;;;14.25;9.07;;;8.50;60.50;;;;;;6003104;23;114346;-85
2023/01/08 12:29:17;;;;;;;10.27;7.50;;;8.40;61.10;;;;;;6054196;23;114429;-85
2023/01/08 12:31:53;;;;;;;10.18;7.65;;;8.50;60.70;;;;;;6074772;23;115160;-83
2023/01/08 12:35:02;;;;;;;11.10;7.18;;;8.50;60.40;;;;;;6075667;23;118091;-84
2023/01/08 12:37:49;;;;;;;12.55;7.88;;;8.50;60.50;;;;;;6048273;23;114515;-85
2023/01/08 12:40:39;;;;;;;9.90;6.60;;;8.60;60.50;;;;;;6052918;23;114453;-83
2023/01/08 12:43:18;;;;;;;13.45;8.02;;;8.60;60.10;;;;;;6028620;23;115140;-84
2023/01/08 12:45:49;;;;;;;12.00;7.40;;;8.60;60.30;;;;;;6051429;23;115117;-85
2023/01/08 12:48:23;;;;;;;11.38;7.90;;;8.60;59.50;;;;;;6052431;23;114378;-83
2023/01/08 12:51:46;;;;;;;15.50;8.45;;;8.60;59.90;;;;;;6004684;23;114647;-84
2023/01/08 12:54:38;;;;;;;14.13;9.20;;;8.70;60.10;;;;;;6075582;23;115167;-84
2023/01/08 12:57:33;;;;;;;14.75;10.25;;;8.70;60.50;;;;;;6053792;23;114721;-86
2023/01/08 13:00:02;;;;;;;16.60;11.77;;;8.70;60.80;;;;;;6029797;23;114346;-83
2023/01/08 13:02:50;;;;;;;19.67;12.77;;;8.70;61.00;;;;;;6052722;23;114721;-84